createdAt,value
2022-12-28T00:04:11.147Z,46.07
2022-12-28T00:09:13.995Z,45.82
2022-12-28T00:14:18.202Z,45.77
2022-12-28T00:19:22.101Z,45.53
2022-12-28T00:24:25.871Z,45.72
2022-12-28T00:29:29.986Z,45.70
2022-12-28T00:34:32.894Z,45.67
2022-12-28T00:39:35.640Z,45.70
2022-12-28T00:44:39.833Z,46.02
2022-12-28T00:49:42.607Z,46.08
2022-12-28T00:54:45.336Z,46.12
2022-12-28T00:59:49.540Z,46.13
2022-12-28T01:04:52.348Z,46.22
2022-12-28T01:09:55.106Z,46.20
2022-12-28T01:14:59.236Z,46.44
2022-12-28T01:20:02.000Z,46.17
2022-12-28T01:25:04.976Z,46.21
2022-12-28T01:30:11.415Z,46.13
2022-12-28T01:35:14.308Z,46.08
2022-12-28T01:40:17.185Z,46.17
2022-12-28T01:45:22.788Z,46.24
2022-12-28T01:50:26.820Z,46.34
2022-12-28T01:55:30.795Z,46.29
2022-12-28T02:00:35.054Z,46.12
2022-12-28T02:05:40.202Z,46.45
2022-12-28T02:10:45.790Z,46.36
2022-12-28T02:15:52.460Z,46.49
2022-12-28T02:21:16.703Z,46.59
2022-12-28T02:26:39.237Z,46.43
2022-12-28T02:31:47.875Z,46.48
2022-12-28T02:36:53.445Z,46.73
2022-12-28T02:41:56.234Z,46.60
2022-12-28T02:47:18.318Z,46.60
2022-12-28T02:52:23.217Z,46.54
2022-12-28T02:57:35.373Z,46.76
2022-12-28T03:02:52.138Z,46.51
2022-12-28T03:08:14.793Z,46.55
2022-12-28T03:13:36.943Z,46.44
2022-12-28T03:18:59.199Z,46.74
2022-12-28T03:24:20.918Z,46.66
2022-12-28T03:29:42.880Z,46.53
2022-12-28T03:34:47.249Z,46.87
2022-12-28T03:39:52.083Z,46.86
2022-12-28T03:44:58.489Z,46.97
2022-12-28T03:50:03.392Z,47.05
2022-12-28T03:55:06.786Z,47.16
2022-12-28T04:00:10.891Z,47.29
2022-12-28T04:05:21.308Z,47.10
2022-12-28T04:10:24.453Z,47.24
2022-12-28T04:15:28.276Z,47.05
2022-12-28T04:20:32.926Z,47.12
2022-12-28T04:25:36.874Z,47.17
2022-12-28T04:30:40.125Z,47.42
2022-12-28T04:35:44.844Z,47.22
2022-12-28T04:40:47.939Z,47.20
2022-12-28T04:45:56.713Z,47.29
2022-12-28T04:51:06.420Z,47.34
2022-12-28T04:56:09.904Z,47.30
2022-12-28T05:01:13.851Z,47.55
2022-12-28T05:06:18.890Z,47.72
2022-12-28T05:11:22.554Z,47.91
2022-12-28T05:16:26.426Z,47.77
2022-12-28T05:21:30.651Z,48.01
2022-12-28T05:26:34.724Z,48.19
2022-12-28T05:31:37.610Z,48.51
2022-12-28T05:36:41.759Z,48.73
2022-12-28T05:41:44.554Z,48.86
2022-12-28T05:46:47.368Z,48.94
2022-12-28T05:51:51.665Z,49.15
2022-12-28T05:56:54.434Z,49.47
2022-12-28T06:01:57.468Z,49.60
2022-12-28T06:07:01.779Z,49.72
2022-12-28T06:12:06.935Z,50.09
2022-12-28T06:17:09.846Z,50.04
2022-12-28T06:22:13.991Z,50.34
2022-12-28T06:27:16.927Z,50.61
2022-12-28T06:32:19.710Z,50.76
2022-12-28T06:37:23.780Z,50.57
2022-12-28T06:42:26.519Z,50.84
2022-12-28T06:47:29.371Z,51.09
2022-12-28T06:52:33.584Z,51.29
2022-12-28T06:57:36.351Z,51.20
2022-12-28T07:02:39.430Z,51.13
2022-12-28T07:07:46.286Z,51.58
2022-12-28T07:12:49.080Z,51.58
2022-12-28T07:17:51.883Z,51.79
2022-12-28T07:22:56.019Z,52.03
2022-12-28T07:27:58.894Z,52.04
2022-12-28T07:33:01.834Z,52.18
2022-12-28T07:38:05.924Z,52.08
2022-12-28T07:43:08.778Z,52.05
2022-12-28T07:48:11.589Z,52.67
2022-12-28T07:53:21.835Z,52.61
2022-12-28T07:58:24.929Z,52.75
2022-12-28T08:03:27.953Z,52.87
2022-12-28T08:08:32.180Z,53.03
2022-12-28T08:13:35.286Z,52.98
2022-12-28T08:18:38.114Z,52.80
2022-12-28T08:23:42.276Z,52.89
2022-12-28T08:28:45.749Z,52.85
2022-12-28T08:33:48.610Z,52.90
2022-12-28T08:38:52.719Z,52.88
2022-12-28T08:43:55.560Z,52.56
2022-12-28T08:48:58.974Z,52.57
2022-12-28T08:54:03.782Z,52.27
2022-12-28T08:59:06.543Z,51.90
2022-12-28T09:04:13.380Z,52.11
2022-12-28T09:09:19.155Z,52.01
2022-12-28T09:14:24.266Z,46.11
2022-12-28T09:19:27.317Z,45.33
2022-12-28T09:24:31.476Z,48.22
2022-12-28T09:29:34.286Z,43.84
2022-12-28T09:34:38.221Z,48.02
2022-12-28T09:39:42.634Z,48.38
2022-12-28T09:44:48.844Z,48.62
2022-12-28T09:50:00.233Z,48.98
2022-12-28T09:55:08.428Z,48.77
2022-12-28T10:00:17.314Z,50.73
2022-12-28T10:05:20.955Z,51.03
2022-12-28T10:10:25.150Z,51.53
2022-12-28T10:15:28.452Z,50.90
2022-12-28T10:20:31.313Z,49.94
2022-12-28T10:25:35.442Z,49.43
2022-12-28T10:30:45.867Z,48.50
2022-12-28T10:35:52.442Z,37.57
2022-12-28T10:41:00.363Z,37.23
2022-12-28T10:46:03.603Z,36.67
2022-12-28T10:51:13.309Z,37.01
2022-12-28T10:56:22.193Z,40.44
2022-12-28T11:01:27.085Z,41.43
2022-12-28T11:06:31.788Z,42.09
2022-12-28T11:11:35.961Z,42.85
2022-12-28T11:16:38.964Z,43.30
2022-12-28T11:21:42.159Z,44.62
2022-12-28T11:26:47.488Z,44.97
2022-12-28T11:31:52.093Z,37.07
2022-12-28T11:36:55.559Z,40.49
2022-12-28T11:47:32.952Z,42.53
2022-12-28T11:52:45.970Z,43.20
2022-12-28T11:57:50.217Z,43.26
2022-12-28T12:02:53.987Z,43.98
2022-12-28T12:07:57.177Z,44.08
2022-12-28T12:13:01.988Z,44.27
2022-12-28T12:18:05.758Z,44.70
2022-12-28T12:23:10.774Z,45.52
2022-12-28T12:28:20.969Z,45.62
2022-12-28T12:33:25.750Z,37.49
2022-12-28T12:38:36.152Z,44.07
2022-12-28T12:43:45.438Z,44.32
2022-12-28T12:49:01.106Z,45.21
2022-12-28T12:54:16.945Z,45.62
2022-12-28T12:59:37.996Z,45.57
2022-12-28T13:04:41.233Z,45.89
2022-12-28T13:09:44.022Z,46.58
2022-12-28T13:14:48.497Z,45.26
2022-12-28T13:19:51.349Z,45.82
2022-12-28T13:24:54.242Z,46.19
2022-12-28T13:29:58.577Z,46.74
2022-12-28T13:35:01.442Z,46.33
2022-12-28T13:40:11.245Z,46.97
2022-12-28T13:45:15.938Z,46.94
2022-12-28T13:50:19.902Z,47.17
2022-12-28T13:55:25.234Z,47.28
2022-12-28T14:00:29.367Z,47.57
2022-12-28T14:05:32.390Z,47.61
2022-12-28T14:10:35.268Z,47.78
2022-12-28T14:15:41.536Z,48.37
2022-12-28T14:20:48.448Z,48.51
2022-12-28T14:25:51.346Z,48.52
2022-12-28T14:30:55.670Z,48.39
2022-12-28T14:36:00.286Z,48.43
2022-12-28T14:41:03.472Z,48.47
2022-12-28T14:46:17.445Z,49.02
2022-12-28T14:51:33.270Z,49.17
2022-12-28T14:56:36.269Z,49.03
2022-12-28T15:01:42.826Z,49.28
2022-12-28T15:06:47.002Z,49.47
2022-12-28T15:11:49.803Z,49.27
2022-12-28T15:16:52.629Z,49.43
2022-12-28T15:21:56.917Z,49.73
2022-12-28T15:26:59.771Z,49.63
2022-12-28T15:32:02.526Z,49.62
2022-12-28T15:37:06.731Z,50.31
2022-12-28T15:42:09.590Z,50.02
2022-12-28T15:47:12.544Z,50.30
2022-12-28T15:52:16.737Z,50.57
2022-12-28T15:57:19.533Z,50.61
2022-12-28T16:02:22.491Z,50.45
2022-12-28T16:07:26.837Z,50.77
2022-12-28T16:12:29.733Z,50.77
2022-12-28T16:17:32.494Z,50.74
2022-12-28T16:22:36.559Z,50.60
2022-12-28T16:27:39.296Z,50.59
2022-12-28T16:32:42.125Z,50.91
2022-12-28T16:37:46.246Z,50.88
2022-12-28T16:42:49.042Z,50.58
2022-12-28T16:47:51.779Z,50.47
2022-12-28T16:53:00.959Z,50.53
2022-12-28T16:58:04.147Z,50.21
2022-12-28T17:03:06.972Z,49.62
2022-12-28T17:08:11.470Z,49.08
2022-12-28T17:13:16.063Z,48.67
2022-12-28T17:18:18.862Z,48.53
2022-12-28T17:23:23.023Z,48.41
2022-12-28T17:28:25.903Z,48.42
2022-12-28T17:33:31.575Z,48.33
2022-12-28T17:38:38.213Z,48.14
2022-12-28T17:43:41.027Z,47.97
2022-12-28T17:48:43.939Z,48.10
2022-12-28T17:53:49.011Z,47.79
2022-12-28T17:58:54.877Z,47.55
2022-12-28T18:03:57.774Z,47.55
2022-12-28T18:09:02.046Z,47.32
2022-12-28T18:14:04.858Z,47.24
2022-12-28T18:19:07.674Z,47.09
2022-12-28T18:24:12.618Z,46.99
2022-12-28T18:29:15.430Z,46.75
2022-12-28T18:34:18.269Z,46.53
2022-12-28T18:39:22.553Z,46.60
2022-12-28T18:44:25.767Z,46.46
2022-12-28T18:49:29.204Z,46.37
2022-12-28T18:54:33.374Z,46.43
2022-12-28T18:59:36.159Z,46.47
2022-12-28T19:04:39.068Z,46.38
2022-12-28T19:10:09.890Z,46.50
2022-12-28T19:15:15.087Z,46.06
2022-12-28T19:20:18.126Z,46.20
2022-12-28T19:25:22.227Z,46.23
2022-12-28T19:30:25.003Z,45.78
2022-12-28T19:35:27.823Z,45.95
2022-12-28T19:40:32.179Z,45.94
2022-12-28T19:45:34.962Z,45.59
2022-12-28T19:50:37.891Z,45.73
2022-12-28T19:55:42.070Z,45.50
2022-12-28T20:00:44.851Z,45.27
2022-12-28T20:05:47.631Z,45.39
2022-12-28T20:10:57.339Z,45.16
2022-12-28T20:16:00.294Z,44.98
2022-12-28T20:21:20.556Z,45.04
2022-12-28T20:26:26.967Z,44.47
2022-12-28T20:31:29.834Z,44.69
2022-12-28T20:36:34.635Z,44.73
2022-12-28T20:41:56.434Z,44.90
2022-12-28T20:46:59.338Z,44.69
2022-12-28T20:52:02.096Z,44.54
2022-12-28T20:57:06.336Z,44.59
2022-12-28T21:02:10.814Z,44.39
2022-12-28T21:07:13.665Z,44.57
2022-12-28T21:12:17.899Z,44.50
2022-12-28T21:17:20.711Z,44.36
2022-12-28T21:22:23.473Z,44.11
2022-12-28T21:27:27.638Z,43.93
2022-12-28T21:32:30.392Z,43.81
2022-12-28T21:37:36.211Z,44.01
2022-12-28T21:42:40.471Z,43.91
2022-12-28T21:47:43.227Z,43.74
2022-12-28T21:52:45.943Z,43.08
2022-12-28T21:57:51.644Z,42.77
2022-12-28T22:03:12.149Z,43.57
2022-12-28T22:08:32.770Z,43.60
2022-12-28T22:13:36.917Z,43.76
2022-12-28T22:24:02.504Z,43.53
2022-12-28T22:29:06.648Z,43.62
2022-12-28T22:34:09.369Z,43.21
2022-12-28T22:39:12.115Z,43.81
2022-12-28T22:44:16.258Z,43.59
2022-12-28T22:49:19.210Z,43.61
2022-12-28T22:54:22.030Z,43.69
2022-12-28T22:59:26.333Z,43.50
2022-12-28T23:04:29.076Z,43.47
2022-12-28T23:09:32.037Z,43.55
2022-12-28T23:14:53.495Z,43.31
2022-12-28T23:20:13.848Z,43.65
2022-12-28T23:25:35.223Z,43.47
2022-12-28T23:30:40.028Z,43.50
2022-12-28T23:35:42.821Z,43.58
2022-12-28T23:40:45.802Z,43.55
2022-12-28T23:45:50.164Z,43.87
2022-12-28T23:51:07.812Z,43.80
2022-12-28T23:56:10.601Z,43.74
